createdAt,value
2022-08-08T00:02:30.209Z,100.00
2022-08-08T00:04:49.121Z,100.00
2022-08-08T00:07:21.332Z,100.00
2022-08-08T00:09:57.422Z,100.00
2022-08-08T00:12:36.164Z,100.00
2022-08-08T00:15:10.262Z,100.00
2022-08-08T00:17:58.380Z,100.00
2022-08-08T00:20:37.102Z,100.00
2022-08-08T00:23:08.291Z,100.00
2022-08-08T00:25:46.219Z,100.00
2022-08-08T00:28:35.580Z,100.00
2022-08-08T00:32:20.362Z,100.00
2022-08-08T00:34:34.887Z,100.00
2022-08-08T00:37:44.769Z,100.00
2022-08-08T00:41:09.359Z,100.00
2022-08-08T00:43:19.797Z,100.00
2022-08-08T00:46:21.348Z,100.00
2022-08-08T00:49:22.178Z,100.00
2022-08-08T00:52:19.438Z,100.00
2022-08-08T00:55:11.377Z,100.00
2022-08-08T00:58:31.923Z,100.00
2022-08-08T01:01:12.053Z,100.00
2022-08-08T01:04:29.674Z,100.00
2022-08-08T01:07:54.729Z,100.00
2022-08-08T01:11:07.935Z,100.00
2022-08-08T01:14:08.529Z,100.00
2022-08-08T01:17:12.000Z,100.00
2022-08-08T01:20:35.068Z,100.00
2022-08-08T01:24:02.882Z,100.00
2022-08-08T01:26:17.581Z,100.00
2022-08-08T01:29:16.484Z,100.00
2022-08-08T01:32:16.184Z,100.00
2022-08-08T01:35:11.806Z,100.00
2022-08-08T01:38:12.165Z,100.00
2022-08-08T01:40:46.709Z,100.00
2022-08-08T01:43:26.919Z,100.00
2022-08-08T01:46:10.226Z,100.00
2022-08-08T01:48:51.219Z,100.00
2022-08-08T01:52:30.675Z,100.00
2022-08-08T01:55:19.617Z,100.00
2022-08-08T01:58:12.139Z,100.00
2022-08-08T02:00:25.445Z,100.00
2022-08-08T02:03:56.019Z,100.00
2022-08-08T02:06:09.427Z,100.00
2022-08-08T02:09:15.868Z,100.00
2022-08-08T02:11:59.116Z,100.00
2022-08-08T02:14:35.095Z,100.00
2022-08-08T02:17:36.540Z,100.00
2022-08-08T02:21:01.397Z,100.00
2022-08-08T02:23:16.228Z,100.00
2022-08-08T02:25:52.841Z,100.00
2022-08-08T02:28:35.281Z,100.00
2022-08-08T02:31:43.172Z,100.00
2022-08-08T02:34:09.081Z,100.00
2022-08-08T02:36:44.522Z,100.00
2022-08-08T02:39:42.432Z,100.00
2022-08-08T02:42:45.323Z,100.00
2022-08-08T02:45:51.530Z,100.00
2022-08-08T02:48:57.396Z,100.00
2022-08-08T02:51:58.618Z,100.00
2022-08-08T02:54:50.220Z,100.00
2022-08-08T02:57:55.973Z,100.00
2022-08-08T03:00:33.671Z,100.00
2022-08-08T03:05:00.554Z,100.00
2022-08-08T03:07:07.431Z,100.00
2022-08-08T03:10:01.976Z,100.00
2022-08-08T03:15:53.995Z,100.00
2022-08-08T03:16:35.808Z,100.00
2022-08-08T03:19:39.612Z,100.00
2022-08-08T03:22:37.717Z,100.00
2022-08-08T03:25:17.868Z,100.00
2022-08-08T03:27:56.309Z,100.00
2022-08-08T03:30:26.409Z,100.00
2022-08-08T03:33:55.468Z,100.00
2022-08-08T03:36:01.418Z,100.00
2022-08-08T03:38:57.649Z,100.00
2022-08-08T03:42:12.466Z,100.00
2022-08-08T03:44:08.296Z,100.00
2022-08-08T03:46:47.188Z,100.00
2022-08-08T03:49:57.219Z,100.00
2022-08-08T03:52:13.216Z,100.00
2022-08-08T03:55:01.755Z,100.00
2022-08-08T03:58:31.182Z,100.00
2022-08-08T04:00:26.179Z,100.00
2022-08-08T04:03:00.546Z,100.00
2022-08-08T04:05:31.659Z,100.00
2022-08-08T04:08:01.490Z,100.00
2022-08-08T04:10:32.074Z,100.00
2022-08-08T04:13:17.133Z,100.00
2022-08-08T04:15:54.967Z,100.00
2022-08-08T04:18:41.810Z,100.00
2022-08-08T04:21:13.017Z,100.00
2022-08-08T04:24:12.184Z,100.00
2022-08-08T04:26:35.521Z,100.00
2022-08-08T04:29:15.325Z,100.00
2022-08-08T04:31:59.531Z,100.00
2022-08-08T04:34:31.804Z,100.00
2022-08-08T04:37:01.062Z,100.00
2022-08-08T04:40:03.167Z,100.00
2022-08-08T04:42:20.632Z,100.00
2022-08-08T04:44:55.664Z,100.00
2022-08-08T04:47:24.530Z,100.00
2022-08-08T04:49:58.575Z,100.00
2022-08-08T04:52:34.314Z,100.00
2022-08-08T04:55:04.196Z,100.00
2022-08-08T04:57:34.405Z,100.00
2022-08-08T05:00:08.224Z,100.00
2022-08-08T05:02:40.279Z,100.00
2022-08-08T05:05:20.031Z,100.00
2022-08-08T05:07:50.025Z,100.00
2022-08-08T05:10:19.771Z,100.00
2022-08-08T05:12:59.987Z,100.00
2022-08-08T05:16:54.854Z,100.00
2022-08-08T05:18:20.183Z,100.00
2022-08-08T05:20:52.252Z,100.00
2022-08-08T05:23:22.087Z,99.80
2022-08-08T05:25:51.629Z,100.00
2022-08-08T05:28:48.360Z,100.00
2022-08-08T05:32:02.202Z,99.85
2022-08-08T05:34:00.007Z,100.00
2022-08-08T05:36:28.408Z,99.26
2022-08-08T05:38:58.919Z,97.45
2022-08-08T05:41:28.249Z,96.38
2022-08-08T05:44:03.254Z,95.69
2022-08-08T05:46:34.372Z,94.13
2022-08-08T05:49:10.321Z,94.15
2022-08-08T05:51:48.949Z,94.99
2022-08-08T05:54:42.892Z,94.66
2022-08-08T05:57:08.741Z,93.29
2022-08-08T05:59:59.589Z,89.69
2022-08-08T06:02:48.103Z,91.29
2022-08-08T06:05:34.121Z,90.70
2022-08-08T06:08:10.379Z,89.61
2022-08-08T06:11:08.244Z,89.07
2022-08-08T06:13:47.087Z,90.65
2022-08-08T06:16:16.647Z,91.16
2022-08-08T06:18:50.257Z,91.32
2022-08-08T06:21:32.440Z,93.21
2022-08-08T06:24:13.776Z,91.71
2022-08-08T06:26:57.111Z,91.94
2022-08-08T06:29:59.347Z,92.68
2022-08-08T06:32:22.992Z,90.07
2022-08-08T06:35:12.106Z,87.29
2022-08-08T06:37:50.849Z,86.85
2022-08-08T06:40:32.135Z,85.42
2022-08-08T06:43:06.546Z,82.84
2022-08-08T06:45:39.354Z,84.01
2022-08-08T06:48:10.023Z,83.44
2022-08-08T06:50:39.991Z,82.67
2022-08-08T06:53:17.440Z,81.69
2022-08-08T06:56:02.550Z,82.47
2022-08-08T06:58:33.684Z,83.04
2022-08-08T07:01:24.340Z,83.50
2022-08-08T07:04:41.592Z,83.75
2022-08-08T07:06:51.853Z,83.56
2022-08-08T07:09:21.937Z,84.27
2022-08-08T07:11:56.511Z,83.61
2022-08-08T07:14:28.557Z,83.83
2022-08-08T07:17:03.180Z,84.57
2022-08-08T07:19:44.653Z,84.45
2022-08-08T07:22:18.616Z,84.82
2022-08-08T07:24:54.094Z,84.63
2022-08-08T07:27:35.142Z,84.71
2022-08-08T07:30:21.329Z,84.60
2022-08-08T07:32:54.947Z,83.51
2022-08-08T07:35:29.442Z,84.01
2022-08-08T07:38:09.944Z,84.40
2022-08-08T07:40:49.126Z,84.82
2022-08-08T07:43:32.366Z,85.04
2022-08-08T07:46:23.450Z,84.29
2022-08-08T07:48:57.343Z,84.65
2022-08-08T07:51:45.240Z,84.54
2022-08-08T07:54:26.536Z,87.09
2022-08-08T07:57:01.849Z,86.23
2022-08-08T07:59:37.716Z,84.00
2022-08-08T08:02:36.218Z,85.46
2022-08-08T08:04:58.232Z,84.71
2022-08-08T08:07:32.206Z,80.15
2022-08-08T08:10:12.564Z,79.77
2022-08-08T08:12:43.724Z,81.63
2022-08-08T08:15:15.201Z,82.11
2022-08-08T08:17:48.136Z,81.90
2022-08-08T08:20:19.323Z,82.15
2022-08-08T08:22:49.045Z,80.67
2022-08-08T08:25:43.177Z,78.19
2022-08-08T08:28:09.292Z,76.64
2022-08-08T08:30:39.535Z,75.95
2022-08-08T08:33:11.195Z,74.59
2022-08-08T08:36:17.952Z,74.81
2022-08-08T08:38:28.801Z,73.90
2022-08-08T08:40:58.828Z,74.04
2022-08-08T08:43:29.089Z,73.75
2022-08-08T08:45:58.761Z,73.32
2022-08-08T08:48:32.785Z,71.26
2022-08-08T08:51:03.342Z,70.57
2022-08-08T08:53:56.667Z,68.39
2022-08-08T08:56:26.350Z,68.33
2022-08-08T08:58:57.965Z,65.62
2022-08-08T09:01:29.047Z,65.70
2022-08-08T09:04:03.177Z,60.68
2022-08-08T09:06:40.502Z,61.46
2022-08-08T09:09:35.027Z,63.06
2022-08-08T09:12:11.659Z,63.81
2022-08-08T09:14:42.487Z,63.76
2022-08-08T09:17:17.299Z,64.29
2022-08-08T09:22:02.431Z,65.03
2022-08-08T09:22:36.021Z,62.48
2022-08-08T09:25:06.105Z,61.06
2022-08-08T09:27:57.607Z,61.46
2022-08-08T09:30:28.022Z,58.86
2022-08-08T09:33:54.911Z,58.26
2022-08-08T09:35:49.399Z,57.45
2022-08-08T09:38:31.847Z,56.13
2022-08-08T09:41:05.511Z,55.87
2022-08-08T09:44:05.396Z,54.59
2022-08-08T09:46:36.371Z,54.28
2022-08-08T09:49:40.945Z,54.79
2022-08-08T09:52:06.246Z,56.48
2022-08-08T09:54:44.076Z,56.19
2022-08-08T09:57:16.905Z,56.49
2022-08-08T10:00:14.752Z,56.82
2022-08-08T10:02:40.590Z,57.06
2022-08-08T10:05:14.535Z,57.12
2022-08-08T10:07:47.960Z,55.25
2022-08-08T10:10:17.052Z,55.86
2022-08-08T10:12:53.895Z,55.22
2022-08-08T10:15:39.453Z,53.19
2022-08-08T10:18:10.624Z,54.15
2022-08-08T10:20:57.823Z,55.36
2022-08-08T10:23:44.046Z,54.95
2022-08-08T10:26:25.862Z,54.64
2022-08-08T10:29:06.042Z,56.00
2022-08-08T10:31:54.972Z,56.86
2022-08-08T10:34:27.270Z,56.98
2022-08-08T10:36:59.890Z,56.16
2022-08-08T10:39:31.665Z,55.93
2022-08-08T10:42:27.226Z,55.62
2022-08-08T10:45:02.723Z,55.17
2022-08-08T10:47:43.737Z,55.79
2022-08-08T10:50:16.689Z,55.94
2022-08-08T10:52:45.208Z,54.73
2022-08-08T10:55:15.620Z,54.67
2022-08-08T10:58:05.975Z,54.33
2022-08-08T11:00:53.204Z,53.14
2022-08-08T11:03:37.117Z,54.61
2022-08-08T11:06:17.862Z,55.05
2022-08-08T11:08:53.075Z,54.75
2022-08-08T11:11:32.246Z,55.42
2022-08-08T11:14:16.039Z,55.01
2022-08-08T11:16:46.533Z,54.36
2022-08-08T11:19:18.039Z,53.15
2022-08-08T11:21:55.204Z,51.11
2022-08-08T11:24:26.970Z,50.37
2022-08-08T11:26:57.459Z,48.31
2022-08-08T11:29:41.458Z,49.56
2022-08-08T11:32:17.373Z,49.79
2022-08-08T11:38:34.616Z,49.07
2022-08-08T11:40:26.481Z,49.97
2022-08-08T11:42:56.266Z,48.87
2022-08-08T11:45:24.792Z,49.05
2022-08-08T11:48:04.826Z,50.39
2022-08-08T11:50:35.387Z,51.42
2022-08-08T11:53:06.038Z,51.54
2022-08-08T11:55:36.745Z,53.56
2022-08-08T11:58:15.278Z,54.14
2022-08-08T12:00:48.478Z,56.37
2022-08-08T12:03:20.793Z,57.48
2022-08-08T12:05:52.090Z,59.32
2022-08-08T12:08:32.153Z,60.29
2022-08-08T12:11:02.448Z,60.67
2022-08-08T12:13:38.287Z,60.46
2022-08-08T12:16:31.818Z,61.86
2022-08-08T12:19:12.471Z,62.28
2022-08-08T12:21:59.513Z,64.39
2022-08-08T12:24:30.795Z,63.19
2022-08-08T12:26:59.336Z,65.57
2022-08-08T12:29:40.421Z,66.96
2022-08-08T12:32:20.389Z,68.33
2022-08-08T12:35:13.274Z,67.83
2022-08-08T12:38:02.113Z,65.11
2022-08-08T12:40:54.344Z,66.77
2022-08-08T12:43:43.890Z,67.34
2022-08-08T12:46:25.998Z,67.77
2022-08-08T12:49:22.177Z,69.72
2022-08-08T12:51:50.194Z,72.04
2022-08-08T12:54:25.727Z,72.99
2022-08-08T12:56:54.405Z,72.13
2022-08-08T12:59:27.236Z,72.10
2022-08-08T13:02:04.736Z,73.53
2022-08-08T13:04:34.968Z,74.02
2022-08-08T13:07:07.079Z,74.15
2022-08-08T13:09:57.713Z,74.36
2022-08-08T13:12:34.081Z,74.46
2022-08-08T13:15:05.755Z,74.67
2022-08-08T13:17:53.834Z,75.24
2022-08-08T13:20:27.284Z,75.09
2022-08-08T13:25:58.724Z,74.56
2022-08-08T13:28:33.085Z,75.68
2022-08-08T13:31:03.994Z,76.06
2022-08-08T13:33:41.914Z,77.44
2022-08-08T13:36:13.744Z,77.45
2022-08-08T13:38:42.425Z,76.53
2022-08-08T13:41:16.199Z,77.21
2022-08-08T13:43:47.252Z,78.11
2022-08-08T13:46:27.443Z,76.87
2022-08-08T13:50:33.563Z,76.69
2022-08-08T13:51:56.132Z,75.62
2022-08-08T13:54:29.543Z,75.34
2022-08-08T13:57:08.705Z,74.36
2022-08-08T13:59:48.057Z,72.95
2022-08-08T14:02:20.571Z,71.89
2022-08-08T14:04:56.925Z,71.46
2022-08-08T14:07:29.875Z,71.09
2022-08-08T14:10:11.612Z,69.67
2022-08-08T14:12:47.334Z,67.61
2022-08-08T14:15:31.249Z,67.27
2022-08-08T14:18:37.050Z,64.81
2022-08-08T14:21:03.455Z,63.69
2022-08-08T14:24:08.106Z,61.96
2022-08-08T14:26:30.258Z,61.45
2022-08-08T14:29:06.196Z,60.73
2022-08-08T14:32:08.933Z,61.79
2022-08-08T14:34:38.111Z,61.67
2022-08-08T14:37:08.604Z,61.17
2022-08-08T14:39:48.399Z,61.48
2022-08-08T14:42:17.669Z,60.75
2022-08-08T14:45:01.383Z,60.40
2022-08-08T14:47:36.552Z,59.12
2022-08-08T14:50:21.282Z,60.07
2022-08-08T14:53:04.621Z,60.55
2022-08-08T14:55:41.901Z,60.16
2022-08-08T14:58:16.811Z,61.31
2022-08-08T15:00:50.399Z,60.28
2022-08-08T15:03:20.289Z,61.78
2022-08-08T15:05:53.194Z,61.43
2022-08-08T15:08:34.253Z,61.93
2022-08-08T15:11:06.546Z,63.17
2022-08-08T15:13:40.658Z,63.28
2022-08-08T15:16:24.636Z,65.98
2022-08-08T15:18:52.840Z,65.46
2022-08-08T15:21:21.559Z,63.82
2022-08-08T15:23:51.091Z,64.26
2022-08-08T15:26:20.527Z,64.32
2022-08-08T15:28:53.024Z,62.85
2022-08-08T15:31:55.597Z,62.19
2022-08-08T15:34:18.480Z,61.79
2022-08-08T15:36:57.877Z,62.34
2022-08-08T15:39:26.110Z,64.06
2022-08-08T15:41:55.260Z,63.14
2022-08-08T15:44:23.369Z,63.68
2022-08-08T15:46:51.828Z,64.57
2022-08-08T15:49:22.290Z,63.78
2022-08-08T15:51:54.414Z,63.10
2022-08-08T15:54:38.101Z,64.43
2022-08-08T15:57:08.827Z,65.03
2022-08-08T16:00:06.703Z,65.76
2022-08-08T16:02:31.128Z,65.76
2022-08-08T16:05:02.238Z,66.93
2022-08-08T16:07:39.216Z,67.50
2022-08-08T16:13:04.686Z,67.68
2022-08-08T16:13:32.076Z,65.45
2022-08-08T16:16:09.218Z,63.68
2022-08-08T16:18:42.466Z,64.47
2022-08-08T16:21:26.379Z,64.89
2022-08-08T16:23:56.278Z,64.53
2022-08-08T16:26:32.881Z,64.63
2022-08-08T16:29:08.263Z,64.31
2022-08-08T16:31:40.951Z,65.16
2022-08-08T16:34:10.509Z,64.06
2022-08-08T16:36:41.034Z,63.88
2022-08-08T16:39:27.807Z,66.61
2022-08-08T16:42:01.301Z,66.66
2022-08-08T16:44:34.311Z,67.11
2022-08-08T16:47:31.448Z,66.44
2022-08-08T16:50:01.453Z,65.80
2022-08-08T16:55:02.811Z,65.61
2022-08-08T16:55:42.865Z,65.35
2022-08-08T16:58:14.659Z,65.64
2022-08-08T17:00:49.147Z,65.88
2022-08-08T17:03:24.811Z,66.83
2022-08-08T17:06:04.020Z,66.64
2022-08-08T17:08:37.637Z,66.14
2022-08-08T17:11:11.193Z,65.77
2022-08-08T17:13:49.815Z,66.57
2022-08-08T17:16:22.062Z,66.30
2022-08-08T17:18:51.125Z,66.89
2022-08-08T17:21:21.429Z,67.95
2022-08-08T17:24:00.949Z,68.58
2022-08-08T17:26:31.828Z,69.18
2022-08-08T17:29:04.135Z,69.63
2022-08-08T17:31:44.643Z,69.75
2022-08-08T17:34:36.438Z,70.67
2022-08-08T17:37:06.445Z,71.80
2022-08-08T17:40:03.887Z,72.63
2022-08-08T17:42:27.125Z,74.52
2022-08-08T17:44:57.630Z,76.44
2022-08-08T17:47:28.159Z,77.26
2022-08-08T17:50:01.014Z,78.43
2022-08-08T17:52:31.422Z,77.72
2022-08-08T17:56:03.256Z,78.62
2022-08-08T17:57:54.108Z,79.35
2022-08-08T18:00:30.085Z,79.84
2022-08-08T18:03:07.543Z,80.29
2022-08-08T18:05:48.315Z,80.74
2022-08-08T18:08:25.389Z,81.99
2022-08-08T18:11:09.126Z,84.35
2022-08-08T18:13:41.349Z,86.53
2022-08-08T18:16:11.453Z,87.90
2022-08-08T18:18:42.893Z,89.08
2022-08-08T18:21:34.694Z,89.88
2022-08-08T18:24:17.255Z,90.52
2022-08-08T18:26:53.781Z,90.85
2022-08-08T18:29:27.326Z,91.35
2022-08-08T18:31:58.095Z,91.93
2022-08-08T18:34:27.630Z,92.67
2022-08-08T18:37:00.682Z,92.53
2022-08-08T18:39:36.341Z,92.59
2022-08-08T18:42:13.679Z,92.90
2022-08-08T18:44:56.065Z,93.51
2022-08-08T18:47:26.805Z,93.67
2022-08-08T18:49:58.678Z,94.38
2022-08-08T18:52:30.472Z,96.56
2022-08-08T18:55:09.826Z,98.53
2022-08-08T18:57:44.553Z,98.91
2022-08-08T19:00:16.591Z,99.31
2022-08-08T19:02:55.161Z,99.63
2022-08-08T19:05:31.987Z,100.00
2022-08-08T19:08:23.903Z,100.00
2022-08-08T19:10:53.021Z,100.00
2022-08-08T19:13:24.497Z,100.00
2022-08-08T19:15:55.761Z,100.00
2022-08-08T19:18:33.416Z,100.00
2022-08-08T19:21:30.318Z,100.00
2022-08-08T19:23:59.787Z,100.00
2022-08-08T19:26:30.109Z,100.00
2022-08-08T19:29:01.076Z,100.00
2022-08-08T19:31:31.567Z,100.00
2022-08-08T19:34:30.260Z,100.00
2022-08-08T19:36:55.404Z,100.00
2022-08-08T19:39:34.960Z,100.00
2022-08-08T19:42:04.942Z,100.00
2022-08-08T19:44:43.224Z,100.00
2022-08-08T19:47:14.440Z,100.00
2022-08-08T19:49:43.061Z,100.00
2022-08-08T19:52:13.435Z,100.00
2022-08-08T19:54:43.241Z,100.00
2022-08-08T19:57:14.476Z,100.00
2022-08-08T19:59:45.700Z,100.00
2022-08-08T20:02:14.511Z,100.00
2022-08-08T20:04:45.628Z,100.00
2022-08-08T20:08:27.818Z,100.00
2022-08-08T20:10:02.772Z,100.00
2022-08-08T20:12:34.478Z,100.00
2022-08-08T20:15:14.844Z,100.00
2022-08-08T20:17:47.752Z,100.00
2022-08-08T20:20:19.504Z,100.00
2022-08-08T20:22:52.555Z,100.00
2022-08-08T20:25:26.380Z,100.00
2022-08-08T20:28:03.422Z,100.00
2022-08-08T20:30:56.072Z,100.00
2022-08-08T20:35:57.007Z,100.00
2022-08-08T20:38:32.611Z,100.00
2022-08-08T20:41:05.766Z,100.00
2022-08-08T20:43:49.187Z,100.00
2022-08-08T20:46:25.518Z,100.00
2022-08-08T20:48:58.183Z,100.00
2022-08-08T20:51:31.748Z,100.00
2022-08-08T20:54:14.362Z,100.00
2022-08-08T20:57:04.029Z,100.00
2022-08-08T20:59:41.381Z,100.00
2022-08-08T21:02:12.868Z,100.00
2022-08-08T21:04:47.767Z,100.00
2022-08-08T21:07:47.624Z,100.00
2022-08-08T21:10:12.782Z,100.00
2022-08-08T21:12:44.612Z,100.00
2022-08-08T21:15:16.398Z,100.00
2022-08-08T21:18:04.635Z,100.00
2022-08-08T21:20:34.545Z,100.00
2022-08-08T21:23:03.458Z,100.00
2022-08-08T21:25:37.375Z,100.00
2022-08-08T21:28:15.769Z,100.00
2022-08-08T21:30:45.315Z,100.00
2022-08-08T21:33:21.956Z,100.00
2022-08-08T21:36:19.182Z,100.00
2022-08-08T21:38:38.351Z,100.00
2022-08-08T21:41:07.222Z,100.00
2022-08-08T21:43:36.445Z,100.00
2022-08-08T21:48:07.693Z,100.00
2022-08-08T21:48:56.087Z,100.00
2022-08-08T21:54:31.836Z,100.00
2022-08-08T21:54:32.789Z,100.00
2022-08-08T21:57:07.262Z,100.00
2022-08-08T22:00:02.600Z,100.00
2022-08-08T22:02:24.167Z,100.00
2022-08-08T22:04:55.668Z,100.00
2022-08-08T22:07:39.397Z,100.00
2022-08-08T22:10:10.051Z,100.00
2022-08-08T22:12:47.385Z,100.00
2022-08-08T22:15:15.699Z,100.00
2022-08-08T22:17:45.430Z,100.00
2022-08-08T22:20:18.835Z,100.00
2022-08-08T22:22:52.668Z,100.00
2022-08-08T22:25:25.841Z,100.00
2022-08-08T22:28:03.141Z,100.00
2022-08-08T22:30:33.581Z,100.00
2022-08-08T22:33:02.032Z,100.00
2022-08-08T22:36:04.510Z,100.00
2022-08-08T22:38:21.182Z,100.00
2022-08-08T22:40:50.435Z,100.00
2022-08-08T22:43:18.954Z,100.00
2022-08-08T22:45:52.758Z,100.00
2022-08-08T22:48:22.531Z,100.00
2022-08-08T22:50:54.736Z,100.00
2022-08-08T22:54:31.045Z,100.00
2022-08-08T22:56:12.346Z,100.00
2022-08-08T22:58:42.255Z,100.00
2022-08-08T23:01:30.213Z,100.00
2022-08-08T23:04:00.944Z,100.00
2022-08-08T23:06:30.528Z,100.00
2022-08-08T23:09:00.141Z,100.00
2022-08-08T23:11:30.927Z,100.00
2022-08-08T23:14:18.912Z,100.00
2022-08-08T23:16:57.652Z,100.00
2022-08-08T23:19:27.838Z,100.00
2022-08-08T23:22:04.178Z,100.00
2022-08-08T23:24:36.176Z,100.00
2022-08-08T23:27:05.809Z,100.00
2022-08-08T23:29:34.116Z,100.00
2022-08-08T23:32:04.409Z,100.00
2022-08-08T23:34:33.106Z,100.00
2022-08-08T23:37:04.311Z,100.00
2022-08-08T23:39:42.243Z,100.00
2022-08-08T23:42:17.886Z,100.00
2022-08-08T23:44:49.813Z,100.00
2022-08-08T23:49:05.982Z,100.00
2022-08-08T23:50:29.938Z,100.00
2022-08-08T23:53:03.553Z,100.00
2022-08-08T23:55:38.301Z,100.00
2022-08-08T23:58:37.702Z,100.00
